sensor_id;sensor_type;location;lat;lon;timestamp;pressure;altitude;pressure_sealevel;temperature;humidity
59951;BME280;45812;53.540;9.774;2023-04-30T00:01:39;102271.31;;;6.78;80.69
59951;BME280;45812;53.540;9.774;2023-04-30T00:04:04;102275.97;;;6.75;81.07
59951;BME280;45812;53.540;9.774;2023-04-30T00:06:29;102273.50;;;6.72;81.37
59951;BME280;45812;53.540;9.774;2023-04-30T00:08:55;102275.50;;;6.68;81.43
59951;BME280;45812;53.540;9.774;2023-04-30T00:11:20;102277.50;;;6.64;81.56
59951;BME280;45812;53.540;9.774;2023-04-30T00:13:45;102283.84;;;6.62;81.73
59951;BME280;45812;53.540;9.774;2023-04-30T00:16:10;102283.09;;;6.60;81.73
59951;BME280;45812;53.540;9.774;2023-04-30T00:18:36;102286.81;;;6.57;82.12
59951;BME280;45812;53.540;9.774;2023-04-30T00:21:02;102278.22;;;6.54;82.82
59951;BME280;45812;53.540;9.774;2023-04-30T00:23:27;102282.09;;;6.48;81.91
59951;BME280;45812;53.540;9.774;2023-04-30T00:25:52;102287.94;;;6.53;81.60
59951;BME280;45812;53.540;9.774;2023-04-30T00:28:18;102291.66;;;6.51;82.09
59951;BME280;45812;53.540;9.774;2023-04-30T00:30:44;102294.38;;;6.49;81.97
59951;BME280;45812;53.540;9.774;2023-04-30T00:33:09;102292.69;;;6.48;82.25
59951;BME280;45812;53.540;9.774;2023-04-30T00:35:35;102292.88;;;6.45;82.25
59951;BME280;45812;53.540;9.774;2023-04-30T00:38:00;102293.09;;;6.42;82.13
59951;BME280;45812;53.540;9.774;2023-04-30T00:40:25;102301.00;;;6.42;82.47
59951;BME280;45812;53.540;9.774;2023-04-30T00:42:51;102300.38;;;6.38;82.47
59951;BME280;45812;53.540;9.774;2023-04-30T00:45:17;102304.81;;;6.38;82.58
59951;BME280;45812;53.540;9.774;2023-04-30T00:47:46;102305.00;;;6.35;82.25
59951;BME280;45812;53.540;9.774;2023-04-30T00:50:11;102304.44;;;6.30;82.47
59951;BME280;45812;53.540;9.774;2023-04-30T00:52:40;102308.03;;;6.29;83.08
59951;BME280;45812;53.540;9.774;2023-04-30T00:55:06;102302.00;;;6.27;83.39
59951;BME280;45812;53.540;9.774;2023-04-30T00:57:33;102307.47;;;6.24;83.20
59951;BME280;45812;53.540;9.774;2023-04-30T00:59:59;102306.00;;;6.20;83.23
59951;BME280;45812;53.540;9.774;2023-04-30T01:02:25;102312.31;;;6.17;82.92
59951;BME280;45812;53.540;9.774;2023-04-30T01:04:50;102310.91;;;6.12;83.74
59951;BME280;45812;53.540;9.774;2023-04-30T01:07:16;102314.59;;;6.09;83.80
59951;BME280;45812;53.540;9.774;2023-04-30T01:09:41;102312.88;;;6.08;84.35
59951;BME280;45812;53.540;9.774;2023-04-30T01:12:09;102306.00;;;6.05;84.83
59951;BME280;45812;53.540;9.774;2023-04-30T01:14:55;102310.44;;;6.05;84.76
59951;BME280;45812;53.540;9.774;2023-04-30T01:17:33;102316.78;;;6.02;85.02
59951;BME280;45812;53.540;9.774;2023-04-30T01:20:02;102326.69;;;5.99;84.42
59951;BME280;45812;53.540;9.774;2023-04-30T01:22:34;102325.94;;;5.97;84.20
59951;BME280;45812;53.540;9.774;2023-04-30T01:25:05;102314.88;;;5.90;84.17
59951;BME280;45812;53.540;9.774;2023-04-30T01:27:54;102319.97;;;5.93;84.26
59951;BME280;45812;53.540;9.774;2023-04-30T01:30:25;102310.50;;;5.89;84.13
59951;BME280;45812;53.540;9.774;2023-04-30T01:32:51;102316.84;;;5.87;84.58
59951;BME280;45812;53.540;9.774;2023-04-30T01:35:16;102311.19;;;5.78;84.68
59951;BME280;45812;53.540;9.774;2023-04-30T01:40:42;102322.69;;;5.63;85.16
59951;BME280;45812;53.540;9.774;2023-04-30T01:46:12;102324.47;;;5.48;86.49
59951;BME280;45812;53.540;9.774;2023-04-30T01:51:19;102322.66;;;5.35;87.64
59951;BME280;45812;53.540;9.774;2023-04-30T01:53:46;102321.25;;;5.29;87.78
59951;BME280;45812;53.540;9.774;2023-04-30T01:56:20;102342.63;;;5.25;88.39
59951;BME280;45812;53.540;9.774;2023-04-30T01:58:47;102342.81;;;5.22;88.83
59951;BME280;45812;53.540;9.774;2023-04-30T02:01:29;102345.63;;;5.18;89.10
59951;BME280;45812;53.540;9.774;2023-04-30T02:03:55;102346.75;;;5.14;89.31
59951;BME280;45812;53.540;9.774;2023-04-30T02:06:22;102348.63;;;5.12;89.56
59951;BME280;45812;53.540;9.774;2023-04-30T02:08:50;102353.31;;;5.07;89.48
59951;BME280;45812;53.540;9.774;2023-04-30T02:11:16;102347.13;;;5.08;89.95
59951;BME280;45812;53.540;9.774;2023-04-30T02:13:41;102346.34;;;5.06;90.01
59951;BME280;45812;53.540;9.774;2023-04-30T02:16:06;102358.78;;;5.04;89.79
59951;BME280;45812;53.540;9.774;2023-04-30T02:18:31;102355.44;;;5.01;90.05
59951;BME280;45812;53.540;9.774;2023-04-30T02:20:57;102363.38;;;5.01;90.33
59951;BME280;45812;53.540;9.774;2023-04-30T02:23:22;102361.66;;;5.00;90.31
59951;BME280;45812;53.540;9.774;2023-04-30T02:25:47;102363.56;;;4.98;90.29
59951;BME280;45812;53.540;9.774;2023-04-30T02:28:12;102360.16;;;4.96;90.58
59951;BME280;45812;53.540;9.774;2023-04-30T02:30:38;102357.59;;;4.94;90.47
59951;BME280;45812;53.540;9.774;2023-04-30T02:33:03;102369.94;;;4.94;90.57
59951;BME280;45812;53.540;9.774;2023-04-30T02:35:29;102370.03;;;4.92;90.84
59951;BME280;45812;53.540;9.774;2023-04-30T02:37:54;102375.41;;;4.91;90.78
59951;BME280;45812;53.540;9.774;2023-04-30T02:40:19;102371.06;;;4.90;91.04
59951;BME280;45812;53.540;9.774;2023-04-30T02:42:45;102366.81;;;4.87;91.37
59951;BME280;45812;53.540;9.774;2023-04-30T02:45:10;102373.88;;;4.86;91.20
59951;BME280;45812;53.540;9.774;2023-04-30T02:47:35;102374.91;;;4.84;90.96
59951;BME280;45812;53.540;9.774;2023-04-30T02:50:00;102376.75;;;4.82;91.37
59951;BME280;45812;53.540;9.774;2023-04-30T02:52:26;102374.22;;;4.80;91.23
59951;BME280;45812;53.540;9.774;2023-04-30T02:54:51;102368.94;;;4.80;91.92
59951;BME280;45812;53.540;9.774;2023-04-30T02:57:16;102369.03;;;4.79;91.53
59951;BME280;45812;53.540;9.774;2023-04-30T02:59:42;102362.22;;;4.75;91.90
59951;BME280;45812;53.540;9.774;2023-04-30T03:02:09;102372.78;;;4.75;91.93
59951;BME280;45812;53.540;9.774;2023-04-30T03:04:35;102376.44;;;4.72;91.90
59951;BME280;45812;53.540;9.774;2023-04-30T03:07:00;102370.31;;;4.72;91.71
59951;BME280;45812;53.540;9.774;2023-04-30T03:09:25;102367.78;;;4.70;92.33
59951;BME280;45812;53.540;9.774;2023-04-30T03:11:51;102374.75;;;4.71;92.67
59951;BME280;45812;53.540;9.774;2023-04-30T03:14:16;102372.78;;;4.75;92.94
59951;BME280;45812;53.540;9.774;2023-04-30T03:16:41;102375.25;;;4.78;93.08
59951;BME280;45812;53.540;9.774;2023-04-30T03:19:06;102383.59;;;4.86;92.69
59951;BME280;45812;53.540;9.774;2023-04-30T03:21:32;102380.78;;;4.89;92.41
59951;BME280;45812;53.540;9.774;2023-04-30T03:23:57;102384.75;;;4.96;92.62
59951;BME280;45812;53.540;9.774;2023-04-30T03:26:22;102381.94;;;4.99;92.47
59951;BME280;45812;53.540;9.774;2023-04-30T03:28:48;102392.25;;;5.04;92.00
59951;BME280;45812;53.540;9.774;2023-04-30T03:31:13;102388.66;;;5.05;91.85
59951;BME280;45812;53.540;9.774;2023-04-30T03:33:38;102386.97;;;5.04;91.85
59951;BME280;45812;53.540;9.774;2023-04-30T03:36:04;102389.75;;;5.01;91.82
59951;BME280;45812;53.540;9.774;2023-04-30T03:38:30;102385.59;;;4.97;91.97
59951;BME280;45812;53.540;9.774;2023-04-30T03:40:55;102383.16;;;4.94;91.85
59951;BME280;45812;53.540;9.774;2023-04-30T03:43:20;102387.66;;;4.92;92.07
59951;BME280;45812;53.540;9.774;2023-04-30T03:45:46;102397.38;;;4.91;92.63
59951;BME280;45812;53.540;9.774;2023-04-30T03:48:11;102400.09;;;4.90;92.93
59951;BME280;45812;53.540;9.774;2023-04-30T03:50:37;102395.66;;;4.90;92.25
59951;BME280;45812;53.540;9.774;2023-04-30T03:53:02;102392.94;;;4.92;92.50
59951;BME280;45812;53.540;9.774;2023-04-30T03:55:27;102394.81;;;4.90;92.83
59951;BME280;45812;53.540;9.774;2023-04-30T03:57:53;102400.00;;;4.91;93.05
59951;BME280;45812;53.540;9.774;2023-04-30T04:00:18;102392.84;;;4.93;93.10
59951;BME280;45812;53.540;9.774;2023-04-30T04:02:44;102392.84;;;4.93;92.98
59951;BME280;45812;53.540;9.774;2023-04-30T04:05:09;102397.38;;;4.91;93.15
59951;BME280;45812;53.540;9.774;2023-04-30T04:07:35;102398.31;;;4.90;93.45
59951;BME280;45812;53.540;9.774;2023-04-30T04:10:00;102406.91;;;4.94;93.91
59951;BME280;45812;53.540;9.774;2023-04-30T04:12:25;102407.66;;;4.96;94.07
59951;BME280;45812;53.540;9.774;2023-04-30T04:14:51;102403.03;;;4.99;93.90
59951;BME280;45812;53.540;9.774;2023-04-30T04:17:16;102399.38;;;5.02;93.44
59951;BME280;45812;53.540;9.774;2023-04-30T04:19:42;102410.81;;;5.02;93.54
59951;BME280;45812;53.540;9.774;2023-04-30T04:22:07;102402.09;;;5.00;93.95
59951;BME280;45812;53.540;9.774;2023-04-30T04:24:32;102378.41;;;4.84;94.18
59951;BME280;45812;53.540;9.774;2023-04-30T04:26:58;102416.94;;;5.03;93.73
59951;BME280;45812;53.540;9.774;2023-04-30T04:29:23;102410.72;;;5.04;94.03
59951;BME280;45812;53.540;9.774;2023-04-30T04:31:49;102416.00;;;5.04;94.38
59951;BME280;45812;53.540;9.774;2023-04-30T04:34:15;102424.78;;;5.04;94.32
59951;BME280;45812;53.540;9.774;2023-04-30T04:36:41;102421.09;;;5.07;94.26
59951;BME280;45812;53.540;9.774;2023-04-30T04:39:06;102420.16;;;5.08;94.58
59951;BME280;45812;53.540;9.774;2023-04-30T04:41:32;102427.13;;;5.09;94.54
59951;BME280;45812;53.540;9.774;2023-04-30T04:43:59;102433.34;;;5.08;94.78
59951;BME280;45812;53.540;9.774;2023-04-30T04:46:25;102425.53;;;5.06;95.00
59951;BME280;45812;53.540;9.774;2023-04-30T04:48:52;102438.53;;;5.09;95.24
59951;BME280;45812;53.540;9.774;2023-04-30T04:51:17;102437.59;;;5.10;95.72
59951;BME280;45812;53.540;9.774;2023-04-30T04:53:43;102434.78;;;5.13;96.34
59951;BME280;45812;53.540;9.774;2023-04-30T04:56:08;102436.56;;;5.13;96.53
59951;BME280;45812;53.540;9.774;2023-04-30T04:58:33;102441.84;;;5.13;96.42
59951;BME280;45812;53.540;9.774;2023-04-30T05:00:59;102432.16;;;5.13;96.69
59951;BME280;45812;53.540;9.774;2023-04-30T05:03:27;102442.72;;;5.13;96.55
59951;BME280;45812;53.540;9.774;2023-04-30T05:05:53;102443.47;;;5.15;97.08
59951;BME280;45812;53.540;9.774;2023-04-30T05:08:18;102452.25;;;5.16;97.38
59951;BME280;45812;53.540;9.774;2023-04-30T05:10:43;102453.84;;;5.18;97.85
59951;BME280;45812;53.540;9.774;2023-04-30T05:13:08;102450.34;;;5.18;98.41
59951;BME280;45812;53.540;9.774;2023-04-30T05:15:34;102459.97;;;5.19;99.02
59951;BME280;45812;53.540;9.774;2023-04-30T05:17:59;102459.97;;;5.19;98.86
59951;BME280;45812;53.540;9.774;2023-04-30T05:20:25;102461.75;;;5.18;99.40
59951;BME280;45812;53.540;9.774;2023-04-30T05:22:50;102467.56;;;5.25;99.82
59951;BME280;45812;53.540;9.774;2023-04-30T05:25:16;102467.38;;;5.28;99.86
59951;BME280;45812;53.540;9.774;2023-04-30T05:27:41;102477.00;;;5.29;100.00
59951;BME280;45812;53.540;9.774;2023-04-30T05:30:07;102480.41;;;5.31;99.90
59951;BME280;45812;53.540;9.774;2023-04-30T05:32:33;102480.03;;;5.37;100.00
59951;BME280;45812;53.540;9.774;2023-04-30T05:34:58;102480.75;;;5.41;99.88
59951;BME280;45812;53.540;9.774;2023-04-30T05:37:23;102478.69;;;5.46;100.00
59951;BME280;45812;53.540;9.774;2023-04-30T05:39:49;102476.53;;;5.53;99.93
59951;BME280;45812;53.540;9.774;2023-04-30T05:42:14;102478.84;;;5.59;99.25
59951;BME280;45812;53.540;9.774;2023-04-30T05:44:40;102482.06;;;5.64;99.58
59951;BME280;45812;53.540;9.774;2023-04-30T05:47:06;102480.94;;;5.68;99.32
59951;BME280;45812;53.540;9.774;2023-04-30T05:49:31;102487.81;;;5.70;99.31
59951;BME280;45812;53.540;9.774;2023-04-30T05:51:57;102478.66;;;5.76;99.36
59951;BME280;45812;53.540;9.774;2023-04-30T05:54:22;102479.00;;;5.86;99.52
59951;BME280;45812;53.540;9.774;2023-04-30T05:56:47;102485.72;;;5.91;99.17
59951;BME280;45812;53.540;9.774;2023-04-30T05:59:12;102481.03;;;5.96;99.33
59951;BME280;45812;53.540;9.774;2023-04-30T06:01:38;102478.97;;;6.01;99.82
59951;BME280;45812;53.540;9.774;2023-04-30T06:04:03;102476.69;;;6.10;100.00
59951;BME280;45812;53.540;9.774;2023-04-30T06:06:29;102480.78;;;6.15;98.87
59951;BME280;45812;53.540;9.774;2023-04-30T06:08:55;102477.66;;;6.23;98.50
59951;BME280;45812;53.540;9.774;2023-04-30T06:11:21;102484.34;;;6.28;96.90
59951;BME280;45812;53.540;9.774;2023-04-30T06:13:47;102481.16;;;6.37;96.85
59951;BME280;45812;53.540;9.774;2023-04-30T06:16:13;102486.81;;;6.46;96.65
59951;BME280;45812;53.540;9.774;2023-04-30T06:18:38;102487.31;;;6.52;95.81
59951;BME280;45812;53.540;9.774;2023-04-30T06:21:03;102492.22;;;6.58;96.12
59951;BME280;45812;53.540;9.774;2023-04-30T06:23:28;102497.97;;;6.65;96.06
59951;BME280;45812;53.540;9.774;2023-04-30T06:25:54;102500.91;;;6.75;95.77
59951;BME280;45812;53.540;9.774;2023-04-30T06:28:19;102500.59;;;6.79;94.17
59951;BME280;45812;53.540;9.774;2023-04-30T06:30:46;102502.94;;;6.84;92.95
59951;BME280;45812;53.540;9.774;2023-04-30T06:33:11;102501.63;;;6.91;93.58
59951;BME280;45812;53.540;9.774;2023-04-30T06:35:36;102503.88;;;6.97;94.21
59951;BME280;45812;53.540;9.774;2023-04-30T06:38:01;102495.53;;;7.03;91.20
59951;BME280;45812;53.540;9.774;2023-04-30T06:40:27;102500.38;;;7.11;88.52
59951;BME280;45812;53.540;9.774;2023-04-30T06:42:52;102506.94;;;7.18;87.82
59951;BME280;45812;53.540;9.774;2023-04-30T06:45:18;102501.25;;;7.24;85.52
59951;BME280;45812;53.540;9.774;2023-04-30T06:47:44;102504.25;;;7.32;84.64
59951;BME280;45812;53.540;9.774;2023-04-30T06:50:10;102508.31;;;7.38;79.54
59951;BME280;45812;53.540;9.774;2023-04-30T06:52:35;102503.66;;;7.41;76.36
59951;BME280;45812;53.540;9.774;2023-04-30T06:55:00;102506.19;;;7.43;74.79
59951;BME280;45812;53.540;9.774;2023-04-30T06:57:26;102501.00;;;7.41;73.75
59951;BME280;45812;53.540;9.774;2023-04-30T06:59:52;102506.97;;;7.45;72.48
59951;BME280;45812;53.540;9.774;2023-04-30T07:02:17;102512.91;;;7.48;73.65
59951;BME280;45812;53.540;9.774;2023-04-30T07:04:43;102509.75;;;7.56;72.54
59951;BME280;45812;53.540;9.774;2023-04-30T07:07:08;102505.56;;;7.66;71.46
59951;BME280;45812;53.540;9.774;2023-04-30T07:09:33;102508.31;;;7.77;71.20
59951;BME280;45812;53.540;9.774;2023-04-30T07:11:58;102505.69;;;7.90;70.54
59951;BME280;45812;53.540;9.774;2023-04-30T07:14:24;102511.03;;;8.03;70.30
59951;BME280;45812;53.540;9.774;2023-04-30T07:16:49;102507.00;;;8.23;68.05
59951;BME280;45812;53.540;9.774;2023-04-30T07:19:15;102516.50;;;8.39;68.59
59951;BME280;45812;53.540;9.774;2023-04-30T07:21:40;102512.00;;;8.53;66.64
59951;BME280;45812;53.540;9.774;2023-04-30T07:24:05;102512.13;;;8.64;64.72
59951;BME280;45812;53.540;9.774;2023-04-30T07:26:30;102518.03;;;8.80;67.75
59951;BME280;45812;53.540;9.774;2023-04-30T07:28:56;102520.34;;;8.97;65.94
59951;BME280;45812;53.540;9.774;2023-04-30T07:31:21;102524.47;;;9.01;60.93
59951;BME280;45812;53.540;9.774;2023-04-30T07:33:46;102522.44;;;9.05;61.11
59951;BME280;45812;53.540;9.774;2023-04-30T07:36:12;102519.25;;;9.13;61.78
59951;BME280;45812;53.540;9.774;2023-04-30T07:38:38;102527.38;;;9.22;59.71
59951;BME280;45812;53.540;9.774;2023-04-30T07:41:03;102527.97;;;9.38;60.27
59951;BME280;45812;53.540;9.774;2023-04-30T07:43:28;102528.91;;;9.61;59.35
59951;BME280;45812;53.540;9.774;2023-04-30T07:45:55;102528.78;;;9.87;58.35
59951;BME280;45812;53.540;9.774;2023-04-30T07:48:20;102527.84;;;9.99;57.14
59951;BME280;45812;53.540;9.774;2023-04-30T07:50:47;102526.03;;;9.99;54.24
59951;BME280;45812;53.540;9.774;2023-04-30T07:53:12;102531.56;;;9.96;54.48
59951;BME280;45812;53.540;9.774;2023-04-30T07:55:37;102523.56;;;9.85;52.64
59951;BME280;45812;53.540;9.774;2023-04-30T07:58:02;102527.41;;;9.81;52.65
59951;BME280;45812;53.540;9.774;2023-04-30T08:00:28;102526.34;;;9.84;54.10
59951;BME280;45812;53.540;9.774;2023-04-30T08:02:55;102519.47;;;9.92;54.75
59951;BME280;45812;53.540;9.774;2023-04-30T08:05:20;102527.59;;;9.91;54.55
59951;BME280;45812;53.540;9.774;2023-04-30T08:07:45;102531.69;;;9.95;56.17
59951;BME280;45812;53.540;9.774;2023-04-30T08:10:11;102529.75;;;9.97;55.56
59951;BME280;45812;53.540;9.774;2023-04-30T08:12:37;102524.09;;;10.01;55.51
59951;BME280;45812;53.540;9.774;2023-04-30T08:15:03;102533.88;;;10.01;55.24
59951;BME280;45812;53.540;9.774;2023-04-30T08:17:30;102541.66;;;10.04;51.75
59951;BME280;45812;53.540;9.774;2023-04-30T08:19:55;102539.06;;;9.91;50.32
59951;BME280;45812;53.540;9.774;2023-04-30T08:22:21;102546.09;;;9.92;51.81
59951;BME280;45812;53.540;9.774;2023-04-30T08:24:46;102547.16;;;9.90;49.51
59951;BME280;45812;53.540;9.774;2023-04-30T08:27:12;102548.25;;;9.87;51.17
59951;BME280;45812;53.540;9.774;2023-04-30T08:29:37;102550.78;;;9.89;50.47
59951;BME280;45812;53.540;9.774;2023-04-30T08:32:02;102549.34;;;9.96;50.74
59951;BME280;45812;53.540;9.774;2023-04-30T08:34:28;102552.50;;;10.01;52.63
59951;BME280;45812;53.540;9.774;2023-04-30T08:36:53;102536.94;;;10.08;52.88
59951;BME280;45812;53.540;9.774;2023-04-30T08:39:18;102530.66;;;10.20;52.84
59951;BME280;45812;53.540;9.774;2023-04-30T08:41:45;102536.41;;;10.26;50.99
59951;BME280;45812;53.540;9.774;2023-04-30T08:44:15;102531.81;;;10.28;49.66
59951;BME280;45812;53.540;9.774;2023-04-30T08:46:40;102539.19;;;10.36;51.14
59951;BME280;45812;53.540;9.774;2023-04-30T08:49:09;102536.16;;;10.41;51.07
59951;BME280;45812;53.540;9.774;2023-04-30T08:51:34;102539.94;;;10.38;49.72
59951;BME280;45812;53.540;9.774;2023-04-30T08:54:00;102532.41;;;10.32;51.04
59951;BME280;45812;53.540;9.774;2023-04-30T08:56:25;102553.97;;;10.29;49.70
59951;BME280;45812;53.540;9.774;2023-04-30T08:58:50;102544.81;;;10.20;49.25
59951;BME280;45812;53.540;9.774;2023-04-30T09:01:16;102539.72;;;10.17;48.62
59951;BME280;45812;53.540;9.774;2023-04-30T09:03:41;102547.97;;;10.14;48.94
59951;BME280;45812;53.540;9.774;2023-04-30T09:06:06;102534.03;;;10.11;49.44
59951;BME280;45812;53.540;9.774;2023-04-30T09:08:46;102546.53;;;10.21;49.69
59951;BME280;45812;53.540;9.774;2023-04-30T09:11:30;102531.09;;;10.26;49.64
59951;BME280;45812;53.540;9.774;2023-04-30T09:14:00;102537.50;;;10.35;49.67
59951;BME280;45812;53.540;9.774;2023-04-30T09:16:27;102543.94;;;10.44;49.17
59951;BME280;45812;53.540;9.774;2023-04-30T09:18:54;102535.47;;;10.50;49.56
59951;BME280;45812;53.540;9.774;2023-04-30T09:21:35;102538.16;;;10.61;48.67
59951;BME280;45812;53.540;9.774;2023-04-30T09:24:02;102531.97;;;10.72;49.49
59951;BME280;45812;53.540;9.774;2023-04-30T09:28:58;102527.25;;;10.86;46.89
59951;BME280;45812;53.540;9.774;2023-04-30T09:31:24;102533.28;;;11.00;47.11
59951;BME280;45812;53.540;9.774;2023-04-30T09:33:51;102526.84;;;11.13;48.48
59951;BME280;45812;53.540;9.774;2023-04-30T09:36:16;102535.38;;;11.39;48.24
59951;BME280;45812;53.540;9.774;2023-04-30T09:38:42;102535.38;;;11.82;47.13
59951;BME280;45812;53.540;9.774;2023-04-30T09:41:23;102529.72;;;12.18;45.45
59951;BME280;45812;53.540;9.774;2023-04-30T09:43:50;102526.25;;;12.27;43.43
59951;BME280;45812;53.540;9.774;2023-04-30T09:46:18;102518.97;;;12.59;44.67
59951;BME280;45812;53.540;9.774;2023-04-30T09:48:44;102522.63;;;12.98;44.57
59951;BME280;45812;53.540;9.774;2023-04-30T09:51:09;102521.19;;;13.25;42.78
59951;BME280;45812;53.540;9.774;2023-04-30T09:53:36;102521.50;;;13.51;41.72
59951;BME280;45812;53.540;9.774;2023-04-30T09:56:06;102511.09;;;13.77;42.58
59951;BME280;45812;53.540;9.774;2023-04-30T09:58:37;102515.72;;;14.13;40.95
59951;BME280;45812;53.540;9.774;2023-04-30T10:01:07;102504.34;;;14.48;40.56
59951;BME280;45812;53.540;9.774;2023-04-30T10:03:33;102499.19;;;14.65;38.88
59951;BME280;45812;53.540;9.774;2023-04-30T10:05:59;102504.03;;;14.89;39.07
59951;BME280;45812;53.540;9.774;2023-04-30T10:10:57;102509.66;;;15.13;37.09
59951;BME280;45812;53.540;9.774;2023-04-30T10:13:24;102503.25;;;15.41;36.22
59951;BME280;45812;53.540;9.774;2023-04-30T10:15:57;102499.66;;;15.86;37.09
59951;BME280;45812;53.540;9.774;2023-04-30T10:18:34;102502.91;;;16.42;35.41
59951;BME280;45812;53.540;9.774;2023-04-30T10:21:02;102492.75;;;16.95;34.01
59951;BME280;45812;53.540;9.774;2023-04-30T10:23:29;102496.03;;;17.32;34.78
59951;BME280;45812;53.540;9.774;2023-04-30T10:25:56;102499.41;;;17.66;33.32
59951;BME280;45812;53.540;9.774;2023-04-30T10:28:22;102491.00;;;18.10;32.35
59951;BME280;45812;53.540;9.774;2023-04-30T10:30:49;102487.28;;;18.74;31.77
59951;BME280;45812;53.540;9.774;2023-04-30T10:33:40;102493.56;;;19.29;31.35
59951;BME280;45812;53.540;9.774;2023-04-30T10:36:17;102478.84;;;20.00;30.97
59951;BME280;45812;53.540;9.774;2023-04-30T10:38:44;102485.91;;;20.68;28.61
59951;BME280;45812;53.540;9.774;2023-04-30T10:41:09;102479.97;;;21.30;28.70
59951;BME280;45812;53.540;9.774;2023-04-30T10:43:35;102480.50;;;21.90;28.02
59951;BME280;45812;53.540;9.774;2023-04-30T10:46:00;102476.56;;;22.55;27.10
59951;BME280;45812;53.540;9.774;2023-04-30T10:48:26;102474.94;;;23.21;24.82
59951;BME280;45812;53.540;9.774;2023-04-30T10:50:57;102461.84;;;23.58;24.75
59951;BME280;45812;53.540;9.774;2023-04-30T10:53:23;102472.03;;;24.42;23.64
59951;BME280;45812;53.540;9.774;2023-04-30T10:56:03;102465.09;;;25.04;22.75
59951;BME280;45812;53.540;9.774;2023-04-30T10:58:34;102471.53;;;25.48;22.15
59951;BME280;45812;53.540;9.774;2023-04-30T11:01:11;102469.38;;;25.81;22.07
59951;BME280;45812;53.540;9.774;2023-04-30T11:03:39;102467.50;;;26.43;21.79
59951;BME280;45812;53.540;9.774;2023-04-30T11:06:13;102457.25;;;27.05;20.44
59951;BME280;45812;53.540;9.774;2023-04-30T11:08:42;102455.59;;;27.58;20.29
59951;BME280;45812;53.540;9.774;2023-04-30T11:11:08;102448.38;;;28.10;19.91
59951;BME280;45812;53.540;9.774;2023-04-30T11:13:43;102453.22;;;28.43;18.46
59951;BME280;45812;53.540;9.774;2023-04-30T11:16:09;102457.56;;;28.27;19.29
59951;BME280;45812;53.540;9.774;2023-04-30T11:18:43;102452.03;;;28.39;18.15
59951;BME280;45812;53.540;9.774;2023-04-30T11:21:09;102454.06;;;28.20;18.14
59951;BME280;45812;53.540;9.774;2023-04-30T11:23:34;102450.63;;;28.37;18.59
59951;BME280;45812;53.540;9.774;2023-04-30T11:26:00;102448.94;;;28.87;17.89
59951;BME280;45812;53.540;9.774;2023-04-30T11:28:27;102448.88;;;29.61;18.03
59951;BME280;45812;53.540;9.774;2023-04-30T11:33:19;102447.56;;;30.41;16.48
59951;BME280;45812;53.540;9.774;2023-04-30T11:35:45;102444.88;;;30.46;16.43
59951;BME280;45812;53.540;9.774;2023-04-30T11:38:11;102435.88;;;30.99;15.81
59951;BME280;45812;53.540;9.774;2023-04-30T11:40:37;102438.16;;;31.34;16.16
59951;BME280;45812;53.540;9.774;2023-04-30T11:43:02;102450.53;;;32.06;15.58
59951;BME280;45812;53.540;9.774;2023-04-30T11:45:28;102432.03;;;32.54;14.77
59951;BME280;45812;53.540;9.774;2023-04-30T11:47:55;102430.41;;;32.68;14.17
59951;BME280;45812;53.540;9.774;2023-04-30T11:50:26;102431.28;;;32.84;14.27
59951;BME280;45812;53.540;9.774;2023-04-30T11:52:58;102424.09;;;32.78;14.16
59951;BME280;45812;53.540;9.774;2023-04-30T11:55:26;102428.06;;;33.48;13.50
59951;BME280;45812;53.540;9.774;2023-04-30T11:57:56;102424.41;;;33.88;13.36
59951;BME280;45812;53.540;9.774;2023-04-30T12:00:28;102428.25;;;33.77;13.38
59951;BME280;45812;53.540;9.774;2023-04-30T12:02:54;102426.34;;;33.62;13.73
59951;BME280;45812;53.540;9.774;2023-04-30T12:05:25;102423.81;;;33.96;12.95
59951;BME280;45812;53.540;9.774;2023-04-30T12:07:56;102421.94;;;33.87;13.66
59951;BME280;45812;53.540;9.774;2023-04-30T12:10:22;102417.81;;;34.49;13.10
59951;BME280;45812;53.540;9.774;2023-04-30T12:12:49;102402.28;;;35.31;12.59
59951;BME280;45812;53.540;9.774;2023-04-30T12:15:16;102410.66;;;35.84;12.21
59951;BME280;45812;53.540;9.774;2023-04-30T12:17:43;102411.34;;;36.61;11.77
59951;BME280;45812;53.540;9.774;2023-04-30T12:20:09;102403.72;;;36.72;11.18
59951;BME280;45812;53.540;9.774;2023-04-30T12:22:35;102397.13;;;37.19;11.99
59951;BME280;45812;53.540;9.774;2023-04-30T12:25:14;102398.06;;;38.16;9.89
59951;BME280;45812;53.540;9.774;2023-04-30T12:27:41;102396.34;;;38.20;10.33
59951;BME280;45812;53.540;9.774;2023-04-30T12:30:07;102399.53;;;37.72;10.93
59951;BME280;45812;53.540;9.774;2023-04-30T12:32:37;102393.75;;;37.22;10.84
59951;BME280;45812;53.540;9.774;2023-04-30T12:35:03;102389.94;;;38.06;10.48
59951;BME280;45812;53.540;9.774;2023-04-30T12:37:29;102403.28;;;38.81;9.79
59951;BME280;45812;53.540;9.774;2023-04-30T12:39:54;102389.00;;;39.19;9.69
59951;BME280;45812;53.540;9.774;2023-04-30T12:42:20;102395.88;;;39.44;9.01
59951;BME280;45812;53.540;9.774;2023-04-30T12:44:45;102387.16;;;39.67;8.51
59951;BME280;45812;53.540;9.774;2023-04-30T12:47:11;102390.25;;;40.14;8.47
59951;BME280;45812;53.540;9.774;2023-04-30T12:49:38;102386.66;;;40.22;8.66
59951;BME280;45812;53.540;9.774;2023-04-30T12:52:11;102382.16;;;39.95;8.75
59951;BME280;45812;53.540;9.774;2023-04-30T12:54:37;102374.31;;;39.58;8.72
59951;BME280;45812;53.540;9.774;2023-04-30T12:57:10;102378.75;;;39.28;8.96
59951;BME280;45812;53.540;9.774;2023-04-30T12:59:39;102376.06;;;39.85;9.28
59951;BME280;45812;53.540;9.774;2023-04-30T13:02:13;102370.78;;;40.49;8.28
59951;BME280;45812;53.540;9.774;2023-04-30T13:04:40;102375.53;;;40.83;7.95
59951;BME280;45812;53.540;9.774;2023-04-30T13:07:05;102366.97;;;40.79;7.01
59951;BME280;45812;53.540;9.774;2023-04-30T13:09:35;102373.66;;;41.30;7.86
59951;BME280;45812;53.540;9.774;2023-04-30T13:12:01;102363.31;;;41.60;8.08